sensor_id;sensor_type;location;lat;lon;timestamp;P1;durP1;ratioP1;P2;durP2;ratioP2
21810;SDS011;11067;48.788;9.208;2022-12-18T00:01:34;72.03;;;30.45;;
21810;SDS011;11067;48.788;9.208;2022-12-18T00:04:02;71.05;;;32.38;;
21810;SDS011;11067;48.788;9.208;2022-12-18T00:06:29;70.18;;;32.30;;
21810;SDS011;11067;48.788;9.208;2022-12-18T00:08:56;68.47;;;29.80;;
21810;SDS011;11067;48.788;9.208;2022-12-18T00:11:23;72.38;;;30.95;;
21810;SDS011;11067;48.788;9.208;2022-12-18T00:13:50;69.90;;;28.50;;
21810;SDS011;11067;48.788;9.208;2022-12-18T00:16:19;71.03;;;30.70;;
21810;SDS011;11067;48.788;9.208;2022-12-18T00:18:46;68.20;;;29.10;;
21810;SDS011;11067;48.788;9.208;2022-12-18T00:21:14;68.57;;;29.60;;
21810;SDS011;11067;48.788;9.208;2022-12-18T00:23:41;67.83;;;29.80;;
21810;SDS011;11067;48.788;9.208;2022-12-18T00:26:10;71.57;;;30.52;;
21810;SDS011;11067;48.788;9.208;2022-12-18T00:28:37;68.18;;;29.33;;
21810;SDS011;11067;48.788;9.208;2022-12-18T00:31:03;68.55;;;30.65;;
21810;SDS011;11067;48.788;9.208;2022-12-18T00:33:31;68.63;;;30.33;;
21810;SDS011;11067;48.788;9.208;2022-12-18T00:38:42;77.35;;;32.53;;
21810;SDS011;11067;48.788;9.208;2022-12-18T00:41:08;75.35;;;30.60;;
21810;SDS011;11067;48.788;9.208;2022-12-18T00:43:36;75.33;;;32.53;;
21810;SDS011;11067;48.788;9.208;2022-12-18T00:46:02;74.97;;;31.95;;
21810;SDS011;11067;48.788;9.208;2022-12-18T00:48:27;80.20;;;32.67;;
21810;SDS011;11067;48.788;9.208;2022-12-18T00:50:53;75.65;;;31.60;;
21810;SDS011;11067;48.788;9.208;2022-12-18T00:53:19;69.32;;;30.45;;
21810;SDS011;11067;48.788;9.208;2022-12-18T00:55:45;73.78;;;29.98;;
21810;SDS011;11067;48.788;9.208;2022-12-18T00:58:11;70.50;;;31.17;;
21810;SDS011;11067;48.788;9.208;2022-12-18T01:00:38;71.95;;;31.65;;
21810;SDS011;11067;48.788;9.208;2022-12-18T01:03:04;77.17;;;31.07;;
21810;SDS011;11067;48.788;9.208;2022-12-18T01:05:30;68.10;;;29.60;;
21810;SDS011;11067;48.788;9.208;2022-12-18T01:07:56;73.37;;;31.53;;
21810;SDS011;11067;48.788;9.208;2022-12-18T01:10:22;68.22;;;30.55;;
21810;SDS011;11067;48.788;9.208;2022-12-18T01:12:48;73.55;;;29.63;;
21810;SDS011;11067;48.788;9.208;2022-12-18T01:15:14;70.88;;;30.10;;
21810;SDS011;11067;48.788;9.208;2022-12-18T01:17:40;63.78;;;28.17;;
21810;SDS011;11067;48.788;9.208;2022-12-18T01:20:06;64.63;;;28.00;;
21810;SDS011;11067;48.788;9.208;2022-12-18T01:22:33;64.97;;;26.20;;
21810;SDS011;11067;48.788;9.208;2022-12-18T01:24:59;66.15;;;28.55;;
21810;SDS011;11067;48.788;9.208;2022-12-18T01:27:25;61.80;;;27.65;;
21810;SDS011;11067;48.788;9.208;2022-12-18T01:29:50;62.87;;;27.63;;
21810;SDS011;11067;48.788;9.208;2022-12-18T01:32:16;60.07;;;28.60;;
21810;SDS011;11067;48.788;9.208;2022-12-18T01:34:41;63.27;;;26.77;;
21810;SDS011;11067;48.788;9.208;2022-12-18T01:37:07;63.08;;;26.95;;
21810;SDS011;11067;48.788;9.208;2022-12-18T01:39:33;62.30;;;26.85;;
21810;SDS011;11067;48.788;9.208;2022-12-18T01:41:59;58.73;;;27.00;;
21810;SDS011;11067;48.788;9.208;2022-12-18T01:47:38;57.58;;;24.85;;
21810;SDS011;11067;48.788;9.208;2022-12-18T01:50:53;58.70;;;25.88;;
21810;SDS011;11067;48.788;9.208;2022-12-18T01:53:04;63.35;;;25.33;;
21810;SDS011;11067;48.788;9.208;2022-12-18T01:55:47;57.75;;;25.88;;
21810;SDS011;11067;48.788;9.208;2022-12-18T01:58:15;58.45;;;26.92;;
21810;SDS011;11067;48.788;9.208;2022-12-18T02:00:43;59.13;;;25.77;;
21810;SDS011;11067;48.788;9.208;2022-12-18T02:03:09;59.03;;;26.50;;
21810;SDS011;11067;48.788;9.208;2022-12-18T02:08:26;57.47;;;25.77;;
21810;SDS011;11067;48.788;9.208;2022-12-18T02:11:05;59.55;;;26.40;;
21810;SDS011;11067;48.788;9.208;2022-12-18T02:13:37;57.20;;;26.08;;
21810;SDS011;11067;48.788;9.208;2022-12-18T02:18:50;59.13;;;25.60;;
21810;SDS011;11067;48.788;9.208;2022-12-18T02:24:21;64.83;;;27.17;;
21810;SDS011;11067;48.788;9.208;2022-12-18T02:26:50;54.53;;;23.05;;
21810;SDS011;11067;48.788;9.208;2022-12-18T02:29:21;50.08;;;23.33;;
21810;SDS011;11067;48.788;9.208;2022-12-18T02:31:53;53.95;;;23.15;;
21810;SDS011;11067;48.788;9.208;2022-12-18T02:34:28;54.57;;;23.87;;
21810;SDS011;11067;48.788;9.208;2022-12-18T02:36:55;59.45;;;24.45;;
21810;SDS011;11067;48.788;9.208;2022-12-18T02:39:23;61.77;;;26.17;;
21810;SDS011;11067;48.788;9.208;2022-12-18T02:41:50;63.37;;;27.17;;
21810;SDS011;11067;48.788;9.208;2022-12-18T02:44:16;58.00;;;26.20;;
21810;SDS011;11067;48.788;9.208;2022-12-18T02:46:43;56.53;;;24.30;;
21810;SDS011;11067;48.788;9.208;2022-12-18T02:49:13;61.95;;;28.23;;
21810;SDS011;11067;48.788;9.208;2022-12-18T02:51:55;53.58;;;24.25;;
21810;SDS011;11067;48.788;9.208;2022-12-18T02:54:34;55.58;;;24.40;;
21810;SDS011;11067;48.788;9.208;2022-12-18T02:57:32;54.42;;;23.70;;
21810;SDS011;11067;48.788;9.208;2022-12-18T03:00:03;60.97;;;24.90;;
21810;SDS011;11067;48.788;9.208;2022-12-18T03:02:37;58.50;;;26.00;;
21810;SDS011;11067;48.788;9.208;2022-12-18T03:07:38;50.20;;;24.10;;
21810;SDS011;11067;48.788;9.208;2022-12-18T03:10:13;56.30;;;24.50;;
21810;SDS011;11067;48.788;9.208;2022-12-18T03:12:43;51.17;;;22.55;;
21810;SDS011;11067;48.788;9.208;2022-12-18T03:15:18;52.80;;;22.48;;
21810;SDS011;11067;48.788;9.208;2022-12-18T03:18:02;53.05;;;22.73;;
21810;SDS011;11067;48.788;9.208;2022-12-18T03:20:49;46.72;;;22.42;;
21810;SDS011;11067;48.788;9.208;2022-12-18T03:23:20;50.63;;;23.58;;
21810;SDS011;11067;48.788;9.208;2022-12-18T03:25:50;51.13;;;22.95;;
21810;SDS011;11067;48.788;9.208;2022-12-18T03:28:21;51.72;;;21.67;;
21810;SDS011;11067;48.788;9.208;2022-12-18T03:30:47;49.27;;;22.67;;
21810;SDS011;11067;48.788;9.208;2022-12-18T03:33:18;46.33;;;21.88;;
21810;SDS011;11067;48.788;9.208;2022-12-18T03:35:49;51.25;;;22.08;;
21810;SDS011;11067;48.788;9.208;2022-12-18T03:38:15;50.58;;;22.38;;
21810;SDS011;11067;48.788;9.208;2022-12-18T03:40:43;42.63;;;20.65;;
21810;SDS011;11067;48.788;9.208;2022-12-18T03:43:19;47.42;;;21.73;;
21810;SDS011;11067;48.788;9.208;2022-12-18T03:45:54;47.55;;;20.88;;
21810;SDS011;11067;48.788;9.208;2022-12-18T03:48:38;51.25;;;22.20;;
21810;SDS011;11067;48.788;9.208;2022-12-18T03:51:20;47.45;;;20.90;;
21810;SDS011;11067;48.788;9.208;2022-12-18T03:56:21;46.60;;;21.33;;
21810;SDS011;11067;48.788;9.208;2022-12-18T03:58:48;45.90;;;22.70;;
21810;SDS011;11067;48.788;9.208;2022-12-18T04:01:17;45.15;;;19.88;;
21810;SDS011;11067;48.788;9.208;2022-12-18T04:03:46;44.57;;;20.63;;
21810;SDS011;11067;48.788;9.208;2022-12-18T04:06:14;52.65;;;21.33;;
21810;SDS011;11067;48.788;9.208;2022-12-18T04:08:40;53.13;;;21.53;;
21810;SDS011;11067;48.788;9.208;2022-12-18T04:11:06;42.35;;;20.50;;
21810;SDS011;11067;48.788;9.208;2022-12-18T04:13:33;43.37;;;20.33;;
21810;SDS011;11067;48.788;9.208;2022-12-18T04:16:00;41.63;;;19.63;;
21810;SDS011;11067;48.788;9.208;2022-12-18T04:18:26;44.00;;;20.63;;
21810;SDS011;11067;48.788;9.208;2022-12-18T04:20:52;44.90;;;20.83;;
21810;SDS011;11067;48.788;9.208;2022-12-18T04:23:17;42.63;;;19.47;;
21810;SDS011;11067;48.788;9.208;2022-12-18T04:25:43;45.30;;;21.02;;
21810;SDS011;11067;48.788;9.208;2022-12-18T04:28:08;44.97;;;19.63;;
21810;SDS011;11067;48.788;9.208;2022-12-18T04:30:34;39.88;;;19.95;;
21810;SDS011;11067;48.788;9.208;2022-12-18T04:32:59;45.45;;;21.00;;
21810;SDS011;11067;48.788;9.208;2022-12-18T04:35:25;43.23;;;20.17;;
21810;SDS011;11067;48.788;9.208;2022-12-18T04:37:51;47.20;;;20.23;;
21810;SDS011;11067;48.788;9.208;2022-12-18T04:40:16;43.73;;;19.80;;
21810;SDS011;11067;48.788;9.208;2022-12-18T04:42:42;39.78;;;20.88;;
21810;SDS011;11067;48.788;9.208;2022-12-18T04:45:07;40.33;;;18.63;;
21810;SDS011;11067;48.788;9.208;2022-12-18T04:47:33;39.07;;;18.80;;
21810;SDS011;11067;48.788;9.208;2022-12-18T04:49:59;41.28;;;19.13;;
21810;SDS011;11067;48.788;9.208;2022-12-18T04:52:24;37.85;;;18.02;;
21810;SDS011;11067;48.788;9.208;2022-12-18T04:54:50;42.60;;;20.08;;
21810;SDS011;11067;48.788;9.208;2022-12-18T04:57:15;42.28;;;19.58;;
21810;SDS011;11067;48.788;9.208;2022-12-18T04:59:42;41.22;;;19.25;;
21810;SDS011;11067;48.788;9.208;2022-12-18T05:02:08;39.10;;;18.75;;
21810;SDS011;11067;48.788;9.208;2022-12-18T05:04:34;37.63;;;18.53;;
21810;SDS011;11067;48.788;9.208;2022-12-18T05:07:00;42.40;;;19.65;;
21810;SDS011;11067;48.788;9.208;2022-12-18T05:09:25;47.20;;;21.13;;
21810;SDS011;11067;48.788;9.208;2022-12-18T05:11:51;45.95;;;19.75;;
21810;SDS011;11067;48.788;9.208;2022-12-18T05:14:16;43.63;;;20.50;;
21810;SDS011;11067;48.788;9.208;2022-12-18T05:16:42;41.83;;;20.30;;
21810;SDS011;11067;48.788;9.208;2022-12-18T05:19:07;44.07;;;19.73;;
21810;SDS011;11067;48.788;9.208;2022-12-18T05:21:33;48.20;;;20.42;;
21810;SDS011;11067;48.788;9.208;2022-12-18T05:23:59;47.20;;;21.43;;
21810;SDS011;11067;48.788;9.208;2022-12-18T05:26:24;41.37;;;19.07;;
21810;SDS011;11067;48.788;9.208;2022-12-18T05:28:50;46.93;;;21.30;;
21810;SDS011;11067;48.788;9.208;2022-12-18T05:31:15;40.13;;;19.63;;
21810;SDS011;11067;48.788;9.208;2022-12-18T05:33:41;45.63;;;20.57;;
21810;SDS011;11067;48.788;9.208;2022-12-18T05:36:07;44.13;;;19.98;;
21810;SDS011;11067;48.788;9.208;2022-12-18T05:38:34;47.90;;;21.60;;
21810;SDS011;11067;48.788;9.208;2022-12-18T05:41:02;39.45;;;19.63;;
21810;SDS011;11067;48.788;9.208;2022-12-18T05:43:28;42.05;;;20.50;;
21810;SDS011;11067;48.788;9.208;2022-12-18T05:45:54;38.30;;;19.02;;
21810;SDS011;11067;48.788;9.208;2022-12-18T05:48:21;40.28;;;19.15;;
21810;SDS011;11067;48.788;9.208;2022-12-18T05:50:47;42.20;;;19.70;;
21810;SDS011;11067;48.788;9.208;2022-12-18T05:53:14;43.55;;;19.42;;
21810;SDS011;11067;48.788;9.208;2022-12-18T05:55:41;37.93;;;18.77;;
21810;SDS011;11067;48.788;9.208;2022-12-18T05:58:08;42.83;;;21.33;;
21810;SDS011;11067;48.788;9.208;2022-12-18T06:00:36;39.85;;;20.08;;
21810;SDS011;11067;48.788;9.208;2022-12-18T06:03:05;42.60;;;19.88;;
21810;SDS011;11067;48.788;9.208;2022-12-18T06:05:34;40.95;;;19.70;;
21810;SDS011;11067;48.788;9.208;2022-12-18T06:08:02;42.93;;;19.30;;
21810;SDS011;11067;48.788;9.208;2022-12-18T06:10:27;41.47;;;19.33;;
21810;SDS011;11067;48.788;9.208;2022-12-18T06:12:53;40.38;;;18.30;;
21810;SDS011;11067;48.788;9.208;2022-12-18T06:15:18;42.83;;;18.80;;
21810;SDS011;11067;48.788;9.208;2022-12-18T06:17:44;43.43;;;18.57;;
21810;SDS011;11067;48.788;9.208;2022-12-18T06:20:09;39.57;;;19.30;;
21810;SDS011;11067;48.788;9.208;2022-12-18T06:22:35;38.77;;;18.27;;
21810;SDS011;11067;48.788;9.208;2022-12-18T06:25:00;39.45;;;18.50;;
21810;SDS011;11067;48.788;9.208;2022-12-18T06:27:26;39.80;;;18.23;;
21810;SDS011;11067;48.788;9.208;2022-12-18T06:29:51;40.13;;;18.80;;
21810;SDS011;11067;48.788;9.208;2022-12-18T06:32:17;35.33;;;17.13;;
21810;SDS011;11067;48.788;9.208;2022-12-18T06:34:42;39.63;;;19.33;;
21810;SDS011;11067;48.788;9.208;2022-12-18T06:37:08;36.53;;;17.60;;
21810;SDS011;11067;48.788;9.208;2022-12-18T06:39:34;38.72;;;18.83;;
21810;SDS011;11067;48.788;9.208;2022-12-18T06:41:59;39.88;;;18.63;;
21810;SDS011;11067;48.788;9.208;2022-12-18T06:44:25;39.07;;;18.30;;
21810;SDS011;11067;48.788;9.208;2022-12-18T06:46:50;42.97;;;18.13;;
21810;SDS011;11067;48.788;9.208;2022-12-18T06:49:16;37.97;;;18.20;;
21810;SDS011;11067;48.788;9.208;2022-12-18T06:51:41;36.88;;;16.70;;
21810;SDS011;11067;48.788;9.208;2022-12-18T06:54:07;37.90;;;17.23;;
21810;SDS011;11067;48.788;9.208;2022-12-18T06:56:33;38.30;;;18.13;;
21810;SDS011;11067;48.788;9.208;2022-12-18T06:58:59;38.72;;;17.77;;
21810;SDS011;11067;48.788;9.208;2022-12-18T07:01:24;40.90;;;17.52;;
21810;SDS011;11067;48.788;9.208;2022-12-18T07:03:53;37.13;;;18.07;;
21810;SDS011;11067;48.788;9.208;2022-12-18T07:06:20;35.60;;;17.73;;
21810;SDS011;11067;48.788;9.208;2022-12-18T07:08:48;41.63;;;19.13;;
21810;SDS011;11067;48.788;9.208;2022-12-18T07:11:14;36.47;;;18.08;;
21810;SDS011;11067;48.788;9.208;2022-12-18T07:13:41;40.95;;;18.90;;
21810;SDS011;11067;48.788;9.208;2022-12-18T07:16:10;35.00;;;16.88;;
21810;SDS011;11067;48.788;9.208;2022-12-18T07:18:37;38.85;;;18.58;;
21810;SDS011;11067;48.788;9.208;2022-12-18T07:21:04;39.00;;;20.58;;
21810;SDS011;11067;48.788;9.208;2022-12-18T07:23:33;41.33;;;18.92;;
21810;SDS011;11067;48.788;9.208;2022-12-18T07:26:00;40.40;;;18.80;;
21810;SDS011;11067;48.788;9.208;2022-12-18T07:28:29;36.30;;;18.63;;
21810;SDS011;11067;48.788;9.208;2022-12-18T07:30:55;42.60;;;19.00;;
21810;SDS011;11067;48.788;9.208;2022-12-18T07:33:20;42.60;;;20.30;;
21810;SDS011;11067;48.788;9.208;2022-12-18T07:35:46;39.20;;;18.30;;
21810;SDS011;11067;48.788;9.208;2022-12-18T07:38:11;38.83;;;17.70;;
21810;SDS011;11067;48.788;9.208;2022-12-18T07:40:37;42.23;;;20.50;;
21810;SDS011;11067;48.788;9.208;2022-12-18T07:43:02;43.17;;;20.10;;
21810;SDS011;11067;48.788;9.208;2022-12-18T07:45:28;44.00;;;20.23;;
21810;SDS011;11067;48.788;9.208;2022-12-18T07:47:54;43.95;;;20.65;;
21810;SDS011;11067;48.788;9.208;2022-12-18T07:50:19;42.58;;;21.33;;
21810;SDS011;11067;48.788;9.208;2022-12-18T07:52:45;37.77;;;18.90;;
21810;SDS011;11067;48.788;9.208;2022-12-18T07:55:10;48.53;;;21.03;;
21810;SDS011;11067;48.788;9.208;2022-12-18T07:57:36;41.73;;;19.23;;
21810;SDS011;11067;48.788;9.208;2022-12-18T08:00:02;40.60;;;20.23;;
21810;SDS011;11067;48.788;9.208;2022-12-18T08:02:30;40.60;;;18.90;;
21810;SDS011;11067;48.788;9.208;2022-12-18T08:04:56;41.63;;;19.40;;
21810;SDS011;11067;48.788;9.208;2022-12-18T08:07:21;40.47;;;18.88;;
21810;SDS011;11067;48.788;9.208;2022-12-18T08:09:47;47.38;;;21.67;;
21810;SDS011;11067;48.788;9.208;2022-12-18T08:12:12;40.67;;;19.27;;
21810;SDS011;11067;48.788;9.208;2022-12-18T08:14:38;39.50;;;18.93;;
21810;SDS011;11067;48.788;9.208;2022-12-18T08:17:03;42.20;;;19.43;;
21810;SDS011;11067;48.788;9.208;2022-12-18T08:19:29;42.97;;;21.17;;
21810;SDS011;11067;48.788;9.208;2022-12-18T08:21:54;38.63;;;18.67;;
21810;SDS011;11067;48.788;9.208;2022-12-18T08:24:20;40.90;;;20.55;;
21810;SDS011;11067;48.788;9.208;2022-12-18T08:26:45;41.05;;;19.88;;
21810;SDS011;11067;48.788;9.208;2022-12-18T08:29:11;43.47;;;20.03;;
21810;SDS011;11067;48.788;9.208;2022-12-18T08:31:37;40.73;;;19.07;;
21810;SDS011;11067;48.788;9.208;2022-12-18T08:34:02;39.22;;;20.45;;
21810;SDS011;11067;48.788;9.208;2022-12-18T08:36:28;43.35;;;20.13;;
21810;SDS011;11067;48.788;9.208;2022-12-18T08:38:53;44.67;;;19.67;;
21810;SDS011;11067;48.788;9.208;2022-12-18T08:41:19;42.07;;;19.53;;
21810;SDS011;11067;48.788;9.208;2022-12-18T08:43:46;39.92;;;20.90;;
21810;SDS011;11067;48.788;9.208;2022-12-18T08:46:37;44.17;;;21.73;;
21810;SDS011;11067;48.788;9.208;2022-12-18T08:49:04;42.22;;;21.00;;
21810;SDS011;11067;48.788;9.208;2022-12-18T08:51:30;40.83;;;19.90;;
21810;SDS011;11067;48.788;9.208;2022-12-18T08:53:57;44.00;;;20.58;;
21810;SDS011;11067;48.788;9.208;2022-12-18T08:56:22;42.73;;;20.23;;
21810;SDS011;11067;48.788;9.208;2022-12-18T08:58:50;51.40;;;21.27;;
21810;SDS011;11067;48.788;9.208;2022-12-18T09:01:19;44.17;;;21.67;;
21810;SDS011;11067;48.788;9.208;2022-12-18T09:03:45;47.70;;;21.63;;
21810;SDS011;11067;48.788;9.208;2022-12-18T09:06:13;43.53;;;20.13;;
21810;SDS011;11067;48.788;9.208;2022-12-18T09:08:40;43.58;;;20.67;;
21810;SDS011;11067;48.788;9.208;2022-12-18T09:11:11;43.55;;;21.58;;
21810;SDS011;11067;48.788;9.208;2022-12-18T09:13:39;44.47;;;20.67;;
21810;SDS011;11067;48.788;9.208;2022-12-18T09:16:04;49.00;;;21.33;;
21810;SDS011;11067;48.788;9.208;2022-12-18T09:18:30;45.05;;;20.65;;
21810;SDS011;11067;48.788;9.208;2022-12-18T09:20:55;42.10;;;21.37;;
21810;SDS011;11067;48.788;9.208;2022-12-18T09:23:21;47.87;;;22.90;;
21810;SDS011;11067;48.788;9.208;2022-12-18T09:25:47;44.33;;;21.50;;
21810;SDS011;11067;48.788;9.208;2022-12-18T09:28:13;46.67;;;22.58;;
21810;SDS011;11067;48.788;9.208;2022-12-18T09:30:40;43.65;;;21.27;;
21810;SDS011;11067;48.788;9.208;2022-12-18T09:33:07;45.92;;;21.65;;
21810;SDS011;11067;48.788;9.208;2022-12-18T09:35:37;41.80;;;20.77;;
21810;SDS011;11067;48.788;9.208;2022-12-18T09:38:03;44.95;;;20.15;;
21810;SDS011;11067;48.788;9.208;2022-12-18T09:40:32;45.37;;;21.37;;
21810;SDS011;11067;48.788;9.208;2022-12-18T09:43:06;45.70;;;21.52;;
21810;SDS011;11067;48.788;9.208;2022-12-18T09:45:40;41.28;;;21.38;;
21810;SDS011;11067;48.788;9.208;2022-12-18T09:48:10;45.78;;;21.45;;
21810;SDS011;11067;48.788;9.208;2022-12-18T09:51:15;42.78;;;20.48;;
21810;SDS011;11067;48.788;9.208;2022-12-18T09:53:41;44.33;;;21.30;;
21810;SDS011;11067;48.788;9.208;2022-12-18T09:56:10;48.35;;;21.75;;
21810;SDS011;11067;48.788;9.208;2022-12-18T09:58:39;45.28;;;21.00;;
21810;SDS011;11067;48.788;9.208;2022-12-18T10:01:12;44.70;;;20.50;;
21810;SDS011;11067;48.788;9.208;2022-12-18T10:03:38;39.83;;;18.93;;
21810;SDS011;11067;48.788;9.208;2022-12-18T10:08:54;43.13;;;21.02;;
21810;SDS011;11067;48.788;9.208;2022-12-18T10:11:32;39.95;;;20.23;;
21810;SDS011;11067;48.788;9.208;2022-12-18T10:14:03;44.03;;;21.27;;
21810;SDS011;11067;48.788;9.208;2022-12-18T10:26:52;45.78;;;21.58;;
21810;SDS011;11067;48.788;9.208;2022-12-18T10:29:21;41.63;;;19.92;;
21810;SDS011;11067;48.788;9.208;2022-12-18T10:31:47;44.80;;;21.20;;
21810;SDS011;11067;48.788;9.208;2022-12-18T10:34:13;43.42;;;21.00;;
21810;SDS011;11067;48.788;9.208;2022-12-18T10:36:40;48.05;;;20.50;;
21810;SDS011;11067;48.788;9.208;2022-12-18T10:39:19;43.63;;;21.92;;
21810;SDS011;11067;48.788;9.208;2022-12-18T10:41:50;41.70;;;20.10;;
21810;SDS011;11067;48.788;9.208;2022-12-18T10:46:46;41.33;;;20.83;;
21810;SDS011;11067;48.788;9.208;2022-12-18T10:49:18;42.17;;;20.63;;
21810;SDS011;11067;48.788;9.208;2022-12-18T10:51:45;46.73;;;21.33;;
21810;SDS011;11067;48.788;9.208;2022-12-18T10:54:21;42.63;;;21.85;;
21810;SDS011;11067;48.788;9.208;2022-12-18T10:56:48;45.70;;;21.33;;
21810;SDS011;11067;48.788;9.208;2022-12-18T10:59:15;45.45;;;23.08;;
21810;SDS011;11067;48.788;9.208;2022-12-18T11:01:54;45.85;;;22.05;;
21810;SDS011;11067;48.788;9.208;2022-12-18T11:07:02;46.42;;;22.30;;
21810;SDS011;11067;48.788;9.208;2022-12-18T11:09:32;44.72;;;20.80;;
21810;SDS011;11067;48.788;9.208;2022-12-18T11:11:59;40.78;;;20.52;;
21810;SDS011;11067;48.788;9.208;2022-12-18T11:14:27;40.40;;;20.20;;
21810;SDS011;11067;48.788;9.208;2022-12-18T11:16:54;45.65;;;22.77;;
21810;SDS011;11067;48.788;9.208;2022-12-18T11:21:47;41.70;;;20.10;;
21810;SDS011;11067;48.788;9.208;2022-12-18T11:24:20;43.58;;;22.02;;
21810;SDS011;11067;48.788;9.208;2022-12-18T11:26:51;43.13;;;20.90;;
21810;SDS011;11067;48.788;9.208;2022-12-18T11:29:17;43.43;;;19.93;;
21810;SDS011;11067;48.788;9.208;2022-12-18T11:31:43;39.30;;;19.92;;
21810;SDS011;11067;48.788;9.208;2022-12-18T11:34:11;42.60;;;19.92;;
21810;SDS011;11067;48.788;9.208;2022-12-18T11:36:47;37.42;;;19.17;;
21810;SDS011;11067;48.788;9.208;2022-12-18T11:39:20;42.33;;;19.80;;
21810;SDS011;11067;48.788;9.208;2022-12-18T11:42:32;42.42;;;18.63;;
21810;SDS011;11067;48.788;9.208;2022-12-18T11:47:15;42.73;;;19.23;;
21810;SDS011;11067;48.788;9.208;2022-12-18T11:49:44;38.85;;;18.20;;
21810;SDS011;11067;48.788;9.208;2022-12-18T11:52:21;40.28;;;17.55;;
21810;SDS011;11067;48.788;9.208;2022-12-18T11:54:50;36.80;;;18.45;;
21810;SDS011;11067;48.788;9.208;2022-12-18T11:57:25;36.63;;;18.88;;
21810;SDS011;11067;48.788;9.208;2022-12-18T12:00:11;36.45;;;18.42;;
21810;SDS011;11067;48.788;9.208;2022-12-18T12:02:52;37.20;;;18.23;;
21810;SDS011;11067;48.788;9.208;2022-12-18T12:05:28;42.65;;;18.48;;
21810;SDS011;11067;48.788;9.208;2022-12-18T12:15:58;39.17;;;17.98;;
21810;SDS011;11067;48.788;9.208;2022-12-18T12:23:29;36.40;;;17.95;;
21810;SDS011;11067;48.788;9.208;2022-12-18T12:26:01;36.57;;;19.00;;
21810;SDS011;11067;48.788;9.208;2022-12-18T12:28:37;37.55;;;18.35;;
21810;SDS011;11067;48.788;9.208;2022-12-18T12:31:30;40.95;;;18.95;;
21810;SDS011;11067;48.788;9.208;2022-12-18T12:37:01;36.78;;;17.75;;
21810;SDS011;11067;48.788;9.208;2022-12-18T12:39:31;36.47;;;17.98;;
21810;SDS011;11067;48.788;9.208;2022-12-18T12:41:59;38.15;;;17.50;;
21810;SDS011;11067;48.788;9.208;2022-12-18T12:44:47;45.03;;;17.63;;
21810;SDS011;11067;48.788;9.208;2022-12-18T12:47:35;34.15;;;17.13;;
21810;SDS011;11067;48.788;9.208;2022-12-18T12:50:05;38.25;;;16.98;;
21810;SDS011;11067;48.788;9.208;2022-12-18T12:52:34;36.10;;;16.58;;
21810;SDS011;11067;48.788;9.208;2022-12-18T12:55:02;34.83;;;15.68;;
21810;SDS011;11067;48.788;9.208;2022-12-18T12:57:34;37.60;;;15.93;;
21810;SDS011;11067;48.788;9.208;2022-12-18T13:00:03;34.17;;;15.32;;
21810;SDS011;11067;48.788;9.208;2022-12-18T13:05:03;31.83;;;14.93;;
21810;SDS011;11067;48.788;9.208;2022-12-18T13:07:41;34.67;;;15.52;;
21810;SDS011;11067;48.788;9.208;2022-12-18T13:12:50;44.13;;;17.95;;
21810;SDS011;11067;48.788;9.208;2022-12-18T13:15:30;37.28;;;17.48;;
21810;SDS011;11067;48.788;9.208;2022-12-18T13:18:11;37.38;;;17.90;;
21810;SDS011;11067;48.788;9.208;2022-12-18T13:20:39;37.90;;;17.93;;
21810;SDS011;11067;48.788;9.208;2022-12-18T13:25:50;38.65;;;17.27;;
21810;SDS011;11067;48.788;9.208;2022-12-18T13:28:17;30.38;;;16.10;;
21810;SDS011;11067;48.788;9.208;2022-12-18T13:30:48;36.40;;;17.00;;
21810;SDS011;11067;48.788;9.208;2022-12-18T13:40:54;33.23;;;16.93;;
21810;SDS011;11067;48.788;9.208;2022-12-18T13:46:00;37.85;;;17.10;;
21810;SDS011;11067;48.788;9.208;2022-12-18T13:48:28;36.60;;;17.33;;
21810;SDS011;11067;48.788;9.208;2022-12-18T13:50:56;34.95;;;16.85;;
21810;SDS011;11067;48.788;9.208;2022-12-18T13:53:27;39.92;;;19.08;;
21810;SDS011;11067;48.788;9.208;2022-12-18T13:55:54;35.72;;;17.95;;
21810;SDS011;11067;48.788;9.208;2022-12-18T13:58:20;39.10;;;19.25;;
21810;SDS011;11067;48.788;9.208;2022-12-18T14:00:46;36.08;;;17.90;;
21810;SDS011;11067;48.788;9.208;2022-12-18T14:03:22;39.92;;;19.05;;
21810;SDS011;11067;48.788;9.208;2022-12-18T14:05:54;40.40;;;19.92;;
21810;SDS011;11067;48.788;9.208;2022-12-18T14:08:21;40.97;;;19.70;;
21810;SDS011;11067;48.788;9.208;2022-12-18T14:10:48;42.25;;;20.38;;
21810;SDS011;11067;48.788;9.208;2022-12-18T14:13:28;38.53;;;19.50;;
21810;SDS011;11067;48.788;9.208;2022-12-18T14:15:56;38.53;;;19.07;;
21810;SDS011;11067;48.788;9.208;2022-12-18T14:18:23;41.22;;;19.73;;
21810;SDS011;11067;48.788;9.208;2022-12-18T14:21:14;39.67;;;19.80;;
21810;SDS011;11067;48.788;9.208;2022-12-18T14:23:46;39.33;;;19.45;;
21810;SDS011;11067;48.788;9.208;2022-12-18T14:26:28;45.20;;;20.38;;
21810;SDS011;11067;48.788;9.208;2022-12-18T14:28:55;40.77;;;20.00;;
21810;SDS011;11067;48.788;9.208;2022-12-18T14:31:25;41.83;;;20.20;;
21810;SDS011;11067;48.788;9.208;2022-12-18T14:33:53;41.92;;;20.25;;
21810;SDS011;11067;48.788;9.208;2022-12-18T14:36:26;42.47;;;19.88;;
21810;SDS011;11067;48.788;9.208;2022-12-18T14:38:56;38.88;;;20.33;;
21810;SDS011;11067;48.788;9.208;2022-12-18T14:41:23;44.60;;;21.02;;
21810;SDS011;11067;48.788;9.208;2022-12-18T14:43:50;45.23;;;20.73;;
21810;SDS011;11067;48.788;9.208;2022-12-18T14:49:01;43.25;;;20.92;;
21810;SDS011;11067;48.788;9.208;2022-12-18T14:51:30;43.38;;;20.75;;
21810;SDS011;11067;48.788;9.208;2022-12-18T14:56:34;41.15;;;20.45;;
21810;SDS011;11067;48.788;9.208;2022-12-18T14:59:15;48.13;;;22.52;;
21810;SDS011;11067;48.788;9.208;2022-12-18T15:01:45;44.95;;;20.20;;
21810;SDS011;11067;48.788;9.208;2022-12-18T15:04:23;41.92;;;21.58;;
21810;SDS011;11067;48.788;9.208;2022-12-18T15:07:03;43.20;;;19.70;;
21810;SDS011;11067;48.788;9.208;2022-12-18T15:09:35;41.40;;;19.38;;
21810;SDS011;11067;48.788;9.208;2022-12-18T15:12:02;44.03;;;19.67;;
21810;SDS011;11067;48.788;9.208;2022-12-18T15:14:30;43.03;;;19.85;;
21810;SDS011;11067;48.788;9.208;2022-12-18T15:17:04;46.15;;;20.63;;
21810;SDS011;11067;48.788;9.208;2022-12-18T15:20:00;40.60;;;19.20;;
21810;SDS011;11067;48.788;9.208;2022-12-18T15:22:33;44.30;;;20.73;;
21810;SDS011;11067;48.788;9.208;2022-12-18T15:25:00;43.20;;;19.60;;
21810;SDS011;11067;48.788;9.208;2022-12-18T15:27:31;42.72;;;19.15;;
21810;SDS011;11067;48.788;9.208;2022-12-18T15:30:01;41.70;;;18.98;;
21810;SDS011;11067;48.788;9.208;2022-12-18T15:32:30;41.72;;;18.50;;
21810;SDS011;11067;48.788;9.208;2022-12-18T15:37:41;43.70;;;19.38;;
21810;SDS011;11067;48.788;9.208;2022-12-18T15:40:08;40.15;;;17.77;;
21810;SDS011;11067;48.788;9.208;2022-12-18T15:42:38;38.70;;;17.90;;
21810;SDS011;11067;48.788;9.208;2022-12-18T15:45:23;43.13;;;19.40;;
21810;SDS011;11067;48.788;9.208;2022-12-18T15:47:48;46.10;;;19.93;;
21810;SDS011;11067;48.788;9.208;2022-12-18T15:50:14;42.07;;;19.27;;
21810;SDS011;11067;48.788;9.208;2022-12-18T15:52:40;45.23;;;19.97;;
21810;SDS011;11067;48.788;9.208;2022-12-18T15:55:10;44.72;;;19.20;;
21810;SDS011;11067;48.788;9.208;2022-12-18T15:57:59;41.15;;;19.13;;